sensor_id;sensor_type;location;lat;lon;timestamp;pressure;altitude;pressure_sealevel;temperature;humidity
6096;BME280;25081;42.698;23.298;2023-06-14T00:00:27;94956.53;;;16.28;100.00
6096;BME280;25081;42.698;23.298;2023-06-14T00:02:39;94946.58;;;16.28;100.00
6096;BME280;25081;42.698;23.298;2023-06-14T00:04:49;94946.58;;;16.28;100.00
6096;BME280;25081;42.698;23.298;2023-06-14T00:07:00;94957.34;;;16.28;100.00
6096;BME280;25081;42.698;23.298;2023-06-14T00:09:11;94960.56;;;16.25;100.00
6096;BME280;25081;42.698;23.298;2023-06-14T00:11:22;94935.27;;;16.24;100.00
6096;BME280;25081;42.698;23.298;2023-06-14T00:13:33;94949.84;;;16.33;100.00
6096;BME280;25081;42.698;23.298;2023-06-14T00:15:43;94943.12;;;16.33;100.00
6096;BME280;25081;42.698;23.298;2023-06-14T00:17:54;94956.58;;;16.38;100.00
6096;BME280;25081;42.698;23.298;2023-06-14T00:20:06;94942.05;;;16.37;100.00
6096;BME280;25081;42.698;23.298;2023-06-14T00:22:17;94945.00;;;16.37;100.00
6096;BME280;25081;42.698;23.298;2023-06-14T00:24:28;94945.00;;;16.33;100.00
6096;BME280;25081;42.698;23.298;2023-06-14T00:26:39;94939.94;;;16.45;100.00
6096;BME280;25081;42.698;23.298;2023-06-14T00:28:52;94939.94;;;16.46;100.00
6096;BME280;25081;42.698;23.298;2023-06-14T00:31:02;94946.70;;;16.51;100.00
6096;BME280;25081;42.698;23.298;2023-06-14T00:33:13;94945.05;;;16.48;100.00
6096;BME280;25081;42.698;23.298;2023-06-14T00:35:24;94943.66;;;16.35;100.00
6096;BME280;25081;42.698;23.298;2023-06-14T00:37:35;94943.66;;;16.35;100.00
6096;BME280;25081;42.698;23.298;2023-06-14T00:39:46;94941.72;;;16.23;100.00
6096;BME280;25081;42.698;23.298;2023-06-14T00:41:57;94941.72;;;16.23;100.00
6096;BME280;25081;42.698;23.298;2023-06-14T00:44:07;94934.95;;;16.17;100.00
6096;BME280;25081;42.698;23.298;2023-06-14T00:46:18;94934.95;;;16.18;100.00
6096;BME280;25081;42.698;23.298;2023-06-14T00:48:29;94931.50;;;16.22;100.00
6096;BME280;25081;42.698;23.298;2023-06-14T00:50:40;94935.05;;;16.33;100.00
6096;BME280;25081;42.698;23.298;2023-06-14T00:52:51;94929.41;;;16.37;100.00
6096;BME280;25081;42.698;23.298;2023-06-14T00:55:02;94925.67;;;16.37;100.00
6096;BME280;25081;42.698;23.298;2023-06-14T00:57:12;94932.41;;;16.46;100.00
6096;BME280;25081;42.698;23.298;2023-06-14T00:59:23;94926.48;;;16.44;100.00
6096;BME280;25081;42.698;23.298;2023-06-14T01:01:34;94926.48;;;16.44;100.00
6096;BME280;25081;42.698;23.298;2023-06-14T01:03:45;94933.78;;;16.50;100.00
6096;BME280;25081;42.698;23.298;2023-06-14T01:05:59;94933.78;;;16.53;100.00
6096;BME280;25081;42.698;23.298;2023-06-14T01:08:13;94932.44;;;16.53;100.00
6096;BME280;25081;42.698;23.298;2023-06-14T01:10:28;94932.70;;;16.52;100.00
6096;BME280;25081;42.698;23.298;2023-06-14T01:12:39;94933.78;;;16.56;100.00
6096;BME280;25081;42.698;23.298;2023-06-14T01:14:51;94932.44;;;16.53;100.00
6096;BME280;25081;42.698;23.298;2023-06-14T01:17:02;94923.25;;;16.47;100.00
6096;BME280;25081;42.698;23.298;2023-06-14T01:19:12;94929.44;;;16.45;100.00
6096;BME280;25081;42.698;23.298;2023-06-14T01:21:24;94930.25;;;16.45;100.00
6096;BME280;25081;42.698;23.298;2023-06-14T01:23:34;94928.40;;;16.51;100.00
6096;BME280;25081;42.698;23.298;2023-06-14T01:25:45;94928.40;;;16.51;100.00
6096;BME280;25081;42.698;23.298;2023-06-14T01:27:57;94927.59;;;16.50;100.00
6096;BME280;25081;42.698;23.298;2023-06-14T01:30:08;94925.91;;;16.39;100.00
6096;BME280;25081;42.698;23.298;2023-06-14T01:32:19;94925.91;;;16.39;100.00
6096;BME280;25081;42.698;23.298;2023-06-14T01:34:30;94928.86;;;16.40;100.00
6096;BME280;25081;42.698;23.298;2023-06-14T01:36:41;94927.28;;;16.42;100.00
6096;BME280;25081;42.698;23.298;2023-06-14T01:38:52;94914.60;;;16.35;100.00
6096;BME280;25081;42.698;23.298;2023-06-14T01:41:02;94914.60;;;16.35;100.00
6096;BME280;25081;42.698;23.298;2023-06-14T01:43:13;94918.64;;;16.37;100.00
6096;BME280;25081;42.698;23.298;2023-06-14T01:45:24;94941.01;;;16.43;100.00
6096;BME280;25081;42.698;23.298;2023-06-14T01:47:35;94933.70;;;16.38;100.00
6096;BME280;25081;42.698;23.298;2023-06-14T01:49:47;94931.32;;;16.42;100.00
6096;BME280;25081;42.698;23.298;2023-06-14T01:51:58;94931.32;;;16.42;100.00
6096;BME280;25081;42.698;23.298;2023-06-14T01:54:08;94928.59;;;16.39;100.00
6096;BME280;25081;42.698;23.298;2023-06-14T01:56:19;94933.70;;;16.38;100.00
6096;BME280;25081;42.698;23.298;2023-06-14T01:58:30;94933.70;;;16.38;100.00
6096;BME280;25081;42.698;23.298;2023-06-14T02:00:41;94937.20;;;16.34;100.00
6096;BME280;25081;42.698;23.298;2023-06-14T02:02:52;94938.54;;;16.31;100.00
6096;BME280;25081;42.698;23.298;2023-06-14T02:05:03;94933.43;;;16.32;100.00
6096;BME280;25081;42.698;23.298;2023-06-14T02:07:14;94933.43;;;16.32;100.00
6096;BME280;25081;42.698;23.298;2023-06-14T02:09:24;94944.74;;;16.39;100.00
6096;BME280;25081;42.698;23.298;2023-06-14T02:11:35;94951.09;;;16.18;100.00
6096;BME280;25081;42.698;23.298;2023-06-14T02:13:46;94942.97;;;16.08;100.00
6096;BME280;25081;42.698;23.298;2023-06-14T02:15:57;94946.52;;;16.13;100.00
6096;BME280;25081;42.698;23.298;2023-06-14T02:18:07;94962.39;;;16.17;100.00
6096;BME280;25081;42.698;23.298;2023-06-14T02:20:18;94961.27;;;16.11;100.00
6096;BME280;25081;42.698;23.298;2023-06-14T02:22:29;94961.27;;;16.11;100.00
6096;BME280;25081;42.698;23.298;2023-06-14T02:24:40;94955.82;;;15.98;100.00
6096;BME280;25081;42.698;23.298;2023-06-14T02:26:50;94965.50;;;15.99;100.00
6096;BME280;25081;42.698;23.298;2023-06-14T02:29:01;94960.88;;;15.92;100.00
6096;BME280;25081;42.698;23.298;2023-06-14T02:31:12;94960.88;;;15.92;100.00
6096;BME280;25081;42.698;23.298;2023-06-14T02:33:23;94957.43;;;15.96;100.00
6096;BME280;25081;42.698;23.298;2023-06-14T02:35:34;94958.98;;;15.90;100.00
6096;BME280;25081;42.698;23.298;2023-06-14T02:37:44;94964.04;;;15.81;100.00
6096;BME280;25081;42.698;23.298;2023-06-14T02:39:55;94964.04;;;15.81;100.00
6096;BME280;25081;42.698;23.298;2023-06-14T02:42:08;94960.33;;;15.87;100.00
6096;BME280;25081;42.698;23.298;2023-06-14T02:44:23;94960.33;;;15.87;100.00
6096;BME280;25081;42.698;23.298;2023-06-14T02:46:30;94958.16;;;15.84;100.00
6096;BME280;25081;42.698;23.298;2023-06-14T02:48:41;94958.71;;;15.86;100.00
6096;BME280;25081;42.698;23.298;2023-06-14T02:50:52;94958.71;;;15.86;100.00
6096;BME280;25081;42.698;23.298;2023-06-14T02:53:03;94952.73;;;15.79;100.00
6096;BME280;25081;42.698;23.298;2023-06-14T02:55:14;94957.58;;;15.80;100.00
6096;BME280;25081;42.698;23.298;2023-06-14T02:57:24;94955.68;;;15.75;100.00
6096;BME280;25081;42.698;23.298;2023-06-14T02:59:35;94959.98;;;15.76;100.00
6096;BME280;25081;42.698;23.298;2023-06-14T03:01:46;94959.98;;;15.76;100.00
6096;BME280;25081;42.698;23.298;2023-06-14T03:03:57;94970.28;;;15.55;100.00
6096;BME280;25081;42.698;23.298;2023-06-14T03:06:08;94967.02;;;15.53;100.00
6096;BME280;25081;42.698;23.298;2023-06-14T03:08:18;94956.09;;;15.62;100.00
6096;BME280;25081;42.698;23.298;2023-06-14T03:10:29;94956.09;;;15.62;100.00
6096;BME280;25081;42.698;23.298;2023-06-14T03:12:40;94973.97;;;15.78;100.00
6096;BME280;25081;42.698;23.298;2023-06-14T03:14:51;94972.14;;;15.84;100.00
6096;BME280;25081;42.698;23.298;2023-06-14T03:17:02;94976.25;;;15.96;100.00
6096;BME280;25081;42.698;23.298;2023-06-14T03:19:12;94976.25;;;15.96;100.00
6096;BME280;25081;42.698;23.298;2023-06-14T03:21:23;94973.84;;;15.97;100.00
6096;BME280;25081;42.698;23.298;2023-06-14T03:23:34;94976.79;;;15.96;100.00
6096;BME280;25081;42.698;23.298;2023-06-14T03:25:44;94962.87;;;16.09;100.00
6096;BME280;25081;42.698;23.298;2023-06-14T03:27:55;94983.95;;;16.22;100.00
6096;BME280;25081;42.698;23.298;2023-06-14T03:30:09;94980.41;;;16.14;100.00
6096;BME280;25081;42.698;23.298;2023-06-14T03:32:20;94980.41;;;16.14;100.00
6096;BME280;25081;42.698;23.298;2023-06-14T03:34:31;94986.88;;;16.18;100.00
6096;BME280;25081;42.698;23.298;2023-06-14T03:36:42;94986.28;;;16.11;100.00
6096;BME280;25081;42.698;23.298;2023-06-14T03:38:52;94990.30;;;16.11;100.00
6096;BME280;25081;42.698;23.298;2023-06-14T03:41:03;94981.62;;;15.94;100.00
6096;BME280;25081;42.698;23.298;2023-06-14T03:43:13;94981.62;;;15.94;100.00
6096;BME280;25081;42.698;23.298;2023-06-14T03:45:24;94987.88;;;16.05;100.00
6096;BME280;25081;42.698;23.298;2023-06-14T03:47:35;94987.88;;;16.05;100.00
6096;BME280;25081;42.698;23.298;2023-06-14T03:49:46;94989.02;;;16.14;100.00
6096;BME280;25081;42.698;23.298;2023-06-14T03:51:56;94989.02;;;16.14;100.00
6096;BME280;25081;42.698;23.298;2023-06-14T03:54:07;94985.05;;;16.29;100.00
6096;BME280;25081;42.698;23.298;2023-06-14T03:56:17;94990.09;;;16.15;100.00
6096;BME280;25081;42.698;23.298;2023-06-14T03:58:28;94996.00;;;16.12;100.00
6096;BME280;25081;42.698;23.298;2023-06-14T04:00:39;94987.63;;;16.11;100.00
6096;BME280;25081;42.698;23.298;2023-06-14T04:02:49;94978.67;;;15.98;100.00
6096;BME280;25081;42.698;23.298;2023-06-14T04:05:00;94995.73;;;16.14;100.00
6096;BME280;25081;42.698;23.298;2023-06-14T04:07:11;94995.73;;;16.14;100.00
6096;BME280;25081;42.698;23.298;2023-06-14T04:09:21;94991.86;;;16.42;100.00
6096;BME280;25081;42.698;23.298;2023-06-14T04:11:32;94991.86;;;16.42;100.00
6096;BME280;25081;42.698;23.298;2023-06-14T04:13:43;94991.83;;;16.39;100.00
6096;BME280;25081;42.698;23.298;2023-06-14T04:15:54;94984.11;;;16.55;100.00
6096;BME280;25081;42.698;23.298;2023-06-14T04:18:05;94992.30;;;16.73;100.00
6096;BME280;25081;42.698;23.298;2023-06-14T04:20:15;94982.34;;;16.74;100.00
6096;BME280;25081;42.698;23.298;2023-06-14T04:22:26;94981.03;;;16.86;99.94
6096;BME280;25081;42.698;23.298;2023-06-14T04:24:36;94990.04;;;17.33;97.91
6096;BME280;25081;42.698;23.298;2023-06-14T04:26:48;94990.38;;;17.69;94.50
6096;BME280;25081;42.698;23.298;2023-06-14T04:28:58;94995.75;;;17.85;92.86
6096;BME280;25081;42.698;23.298;2023-06-14T04:31:09;94992.78;;;18.01;92.11
6096;BME280;25081;42.698;23.298;2023-06-14T04:33:19;94990.86;;;18.35;89.76
6096;BME280;25081;42.698;23.298;2023-06-14T04:35:30;94993.53;;;18.40;88.62
6096;BME280;25081;42.698;23.298;2023-06-14T04:37:41;94996.72;;;18.73;87.71
6096;BME280;25081;42.698;23.298;2023-06-14T04:39:52;94982.62;;;18.83;86.82
6096;BME280;25081;42.698;23.298;2023-06-14T04:42:04;94983.56;;;19.13;85.49
6096;BME280;25081;42.698;23.298;2023-06-14T04:44:14;94990.17;;;18.86;85.63
6096;BME280;25081;42.698;23.298;2023-06-14T04:46:25;94980.89;;;19.52;81.87
6096;BME280;25081;42.698;23.298;2023-06-14T04:48:35;94980.05;;;19.93;80.05
6096;BME280;25081;42.698;23.298;2023-06-14T04:50:47;94989.62;;;19.78;79.57
6096;BME280;25081;42.698;23.298;2023-06-14T04:52:58;94989.58;;;19.88;79.77
6096;BME280;25081;42.698;23.298;2023-06-14T04:55:10;94989.56;;;20.20;78.73
6096;BME280;25081;42.698;23.298;2023-06-14T04:57:21;94996.70;;;20.66;76.15
6096;BME280;25081;42.698;23.298;2023-06-14T04:59:31;94993.95;;;20.69;75.60
6096;BME280;25081;42.698;23.298;2023-06-14T05:01:42;94991.71;;;20.76;75.38
6096;BME280;25081;42.698;23.298;2023-06-14T05:03:54;94999.88;;;20.71;74.78
6096;BME280;25081;42.698;23.298;2023-06-14T05:06:05;95002.05;;;20.45;75.99
6096;BME280;25081;42.698;23.298;2023-06-14T05:08:15;95004.87;;;20.61;76.68
6096;BME280;25081;42.698;23.298;2023-06-14T05:10:26;95010.61;;;20.81;74.25
6096;BME280;25081;42.698;23.298;2023-06-14T05:12:37;95011.31;;;20.39;75.35
6096;BME280;25081;42.698;23.298;2023-06-14T05:14:48;95009.92;;;19.81;77.61
6096;BME280;25081;42.698;23.298;2023-06-14T05:16:59;95005.68;;;19.69;80.39
6096;BME280;25081;42.698;23.298;2023-06-14T05:19:09;95012.33;;;19.38;79.86
6096;BME280;25081;42.698;23.298;2023-06-14T05:21:20;95015.55;;;18.93;82.03
6096;BME280;25081;42.698;23.298;2023-06-14T05:23:32;95011.00;;;19.35;81.83
6096;BME280;25081;42.698;23.298;2023-06-14T05:25:44;95012.22;;;20.29;79.36
6096;BME280;25081;42.698;23.298;2023-06-14T05:27:54;95017.00;;;20.90;75.00
6096;BME280;25081;42.698;23.298;2023-06-14T05:30:07;95022.30;;;21.00;75.04
6096;BME280;25081;42.698;23.298;2023-06-14T05:32:18;95025.26;;;21.04;73.28
6096;BME280;25081;42.698;23.298;2023-06-14T05:34:28;95034.34;;;20.65;75.85
6096;BME280;25081;42.698;23.298;2023-06-14T05:36:39;95026.23;;;20.34;76.04
6096;BME280;25081;42.698;23.298;2023-06-14T05:38:50;95036.16;;;19.33;79.59
6096;BME280;25081;42.698;23.298;2023-06-14T05:41:01;95035.65;;;19.26;81.65
6096;BME280;25081;42.698;23.298;2023-06-14T05:43:12;95036.85;;;19.57;80.92
6096;BME280;25081;42.698;23.298;2023-06-14T05:45:22;95035.83;;;19.87;80.07
6096;BME280;25081;42.698;23.298;2023-06-14T05:47:33;95035.74;;;19.63;79.20
6096;BME280;25081;42.698;23.298;2023-06-14T05:49:44;95034.70;;;19.49;80.44
6096;BME280;25081;42.698;23.298;2023-06-14T05:51:55;95038.92;;;19.72;81.03
6096;BME280;25081;42.698;23.298;2023-06-14T05:54:05;95038.09;;;19.75;80.58
6096;BME280;25081;42.698;23.298;2023-06-14T05:56:16;95040.55;;;19.68;81.52
6096;BME280;25081;42.698;23.298;2023-06-14T05:58:27;95037.34;;;19.69;82.29
6096;BME280;25081;42.698;23.298;2023-06-14T06:00:38;95039.70;;;19.76;81.62
6096;BME280;25081;42.698;23.298;2023-06-14T06:02:48;95044.36;;;19.70;81.93
6096;BME280;25081;42.698;23.298;2023-06-14T06:04:59;95045.79;;;19.52;82.51
6096;BME280;25081;42.698;23.298;2023-06-14T06:07:10;95049.38;;;19.40;83.18
6096;BME280;25081;42.698;23.298;2023-06-14T06:09:21;95053.51;;;19.20;85.21
6096;BME280;25081;42.698;23.298;2023-06-14T06:11:31;95050.30;;;19.15;85.96
6096;BME280;25081;42.698;23.298;2023-06-14T06:13:42;95053.25;;;19.19;86.62
6096;BME280;25081;42.698;23.298;2023-06-14T06:15:53;95046.77;;;19.17;86.24
6096;BME280;25081;42.698;23.298;2023-06-14T06:18:03;95054.64;;;19.13;85.21
6096;BME280;25081;42.698;23.298;2023-06-14T06:20:14;95055.19;;;19.13;85.36
6096;BME280;25081;42.698;23.298;2023-06-14T06:22:27;95054.36;;;19.10;85.41
6096;BME280;25081;42.698;23.298;2023-06-14T06:24:37;95056.53;;;19.13;85.26
6096;BME280;25081;42.698;23.298;2023-06-14T06:26:48;95051.11;;;19.15;85.29
6096;BME280;25081;42.698;23.298;2023-06-14T06:28:59;95058.58;;;19.36;84.65
6096;BME280;25081;42.698;23.298;2023-06-14T06:31:09;95061.00;;;19.40;84.62
6096;BME280;25081;42.698;23.298;2023-06-14T06:33:20;95059.86;;;19.52;84.05
6096;BME280;25081;42.698;23.298;2023-06-14T06:35:31;95062.30;;;19.51;83.46
6096;BME280;25081;42.698;23.298;2023-06-14T06:37:42;95057.41;;;19.53;83.46
6096;BME280;25081;42.698;23.298;2023-06-14T06:39:53;95060.33;;;19.66;83.75
6096;BME280;25081;42.698;23.298;2023-06-14T06:42:04;95057.73;;;19.88;81.84
6096;BME280;25081;42.698;23.298;2023-06-14T06:44:15;95054.64;;;20.05;81.01
6096;BME280;25081;42.698;23.298;2023-06-14T06:46:25;95059.69;;;20.19;80.89
6096;BME280;25081;42.698;23.298;2023-06-14T06:48:36;95058.41;;;20.40;79.75
6096;BME280;25081;42.698;23.298;2023-06-14T06:50:46;95061.63;;;20.47;79.52
6096;BME280;25081;42.698;23.298;2023-06-14T06:52:57;95057.62;;;20.69;78.33
6096;BME280;25081;42.698;23.298;2023-06-14T06:55:09;95063.11;;;20.88;77.17
6096;BME280;25081;42.698;23.298;2023-06-14T06:57:20;95057.28;;;20.99;76.79
6096;BME280;25081;42.698;23.298;2023-06-14T06:59:32;95057.87;;;21.41;74.78
6096;BME280;25081;42.698;23.298;2023-06-14T07:01:42;95056.20;;;22.02;72.19
6096;BME280;25081;42.698;23.298;2023-06-14T07:03:53;95052.23;;;22.62;69.15
6096;BME280;25081;42.698;23.298;2023-06-14T07:06:04;95049.78;;;22.77;67.54
6096;BME280;25081;42.698;23.298;2023-06-14T07:08:15;95050.95;;;23.17;67.72
6096;BME280;25081;42.698;23.298;2023-06-14T07:10:26;95054.41;;;22.46;69.29
6096;BME280;25081;42.698;23.298;2023-06-14T07:12:37;95056.89;;;23.19;68.29
6096;BME280;25081;42.698;23.298;2023-06-14T07:14:47;95051.84;;;23.12;68.06
6096;BME280;25081;42.698;23.298;2023-06-14T07:16:58;95050.91;;;23.45;66.09
6096;BME280;25081;42.698;23.298;2023-06-14T07:19:09;95054.69;;;23.07;67.18
6096;BME280;25081;42.698;23.298;2023-06-14T07:21:20;95058.28;;;22.43;67.17
6096;BME280;25081;42.698;23.298;2023-06-14T07:23:30;95054.09;;;20.95;71.91
6096;BME280;25081;42.698;23.298;2023-06-14T07:25:41;95054.47;;;20.27;75.81
6096;BME280;25081;42.698;23.298;2023-06-14T07:27:51;95048.35;;;21.20;72.76
6096;BME280;25081;42.698;23.298;2023-06-14T07:30:03;95053.31;;;22.15;70.38
6096;BME280;25081;42.698;23.298;2023-06-14T07:32:13;95046.81;;;22.76;66.30
6096;BME280;25081;42.698;23.298;2023-06-14T07:34:24;95053.09;;;22.44;68.54
6096;BME280;25081;42.698;23.298;2023-06-14T07:36:36;95048.23;;;22.11;68.87
6096;BME280;25081;42.698;23.298;2023-06-14T07:38:56;95044.98;;;21.31;71.39
6096;BME280;25081;42.698;23.298;2023-06-14T07:41:07;95049.58;;;21.09;70.91
6096;BME280;25081;42.698;23.298;2023-06-14T07:43:17;95048.69;;;21.16;71.74
6096;BME280;25081;42.698;23.298;2023-06-14T07:45:28;95049.13;;;21.47;71.23
6096;BME280;25081;42.698;23.298;2023-06-14T07:47:39;95058.29;;;21.89;69.54
6096;BME280;25081;42.698;23.298;2023-06-14T07:49:49;95052.16;;;21.81;69.55
6096;BME280;25081;42.698;23.298;2023-06-14T07:52:00;95047.77;;;21.47;69.54
6096;BME280;25081;42.698;23.298;2023-06-14T07:54:11;95055.88;;;21.28;70.27
6096;BME280;25081;42.698;23.298;2023-06-14T07:56:22;95059.28;;;21.12;71.83
6096;BME280;25081;42.698;23.298;2023-06-14T07:58:33;95047.98;;;21.51;70.54
6096;BME280;25081;42.698;23.298;2023-06-14T08:00:43;95059.54;;;21.59;70.17
6096;BME280;25081;42.698;23.298;2023-06-14T08:02:54;95063.89;;;22.49;67.00
6096;BME280;25081;42.698;23.298;2023-06-14T08:05:06;95061.73;;;23.36;63.84
6096;BME280;25081;42.698;23.298;2023-06-14T08:07:17;95060.51;;;24.39;60.99
6096;BME280;25081;42.698;23.298;2023-06-14T08:09:28;95065.19;;;24.81;59.03
6096;BME280;25081;42.698;23.298;2023-06-14T08:11:39;95064.08;;;25.42;57.03
6096;BME280;25081;42.698;23.298;2023-06-14T08:13:49;95071.09;;;26.34;54.47
6096;BME280;25081;42.698;23.298;2023-06-14T08:16:00;95071.84;;;26.11;55.14
6096;BME280;25081;42.698;23.298;2023-06-14T08:18:11;95075.79;;;23.79;60.02
6096;BME280;25081;42.698;23.298;2023-06-14T08:20:21;95075.53;;;24.70;57.79
6096;BME280;25081;42.698;23.298;2023-06-14T08:22:32;95076.17;;;24.22;58.57
6096;BME280;25081;42.698;23.298;2023-06-14T08:24:43;95073.95;;;23.50;60.66
6096;BME280;25081;42.698;23.298;2023-06-14T08:26:53;95080.08;;;23.17;62.40
6096;BME280;25081;42.698;23.298;2023-06-14T08:29:04;95083.81;;;22.74;63.02
6096;BME280;25081;42.698;23.298;2023-06-14T08:31:15;95077.18;;;23.24;61.90
6096;BME280;25081;42.698;23.298;2023-06-14T08:33:25;95074.38;;;25.25;56.41
6096;BME280;25081;42.698;23.298;2023-06-14T08:35:36;95072.88;;;25.78;53.48
6096;BME280;25081;42.698;23.298;2023-06-14T08:37:46;95069.71;;;25.74;54.26
6096;BME280;25081;42.698;23.298;2023-06-14T08:39:57;95080.53;;;24.10;57.04
6096;BME280;25081;42.698;23.298;2023-06-14T08:42:08;95079.33;;;23.91;58.34
6096;BME280;25081;42.698;23.298;2023-06-14T08:44:19;95076.59;;;24.61;57.35
6096;BME280;25081;42.698;23.298;2023-06-14T08:46:30;95066.35;;;24.77;56.51
6096;BME280;25081;42.698;23.298;2023-06-14T08:48:40;95067.94;;;24.47;57.77
6096;BME280;25081;42.698;23.298;2023-06-14T08:50:51;95067.16;;;24.22;59.06
6096;BME280;25081;42.698;23.298;2023-06-14T08:53:02;95067.06;;;22.83;62.07
6096;BME280;25081;42.698;23.298;2023-06-14T08:55:13;95062.99;;;23.91;59.85
6096;BME280;25081;42.698;23.298;2023-06-14T08:57:24;95055.92;;;25.50;56.30
6096;BME280;25081;42.698;23.298;2023-06-14T08:59:35;95058.56;;;25.53;54.52
6096;BME280;25081;42.698;23.298;2023-06-14T09:01:45;95060.49;;;25.81;53.96
6096;BME280;25081;42.698;23.298;2023-06-14T09:03:56;95053.43;;;26.81;51.17
6096;BME280;25081;42.698;23.298;2023-06-14T09:06:06;95049.65;;;27.12;49.77
6096;BME280;25081;42.698;23.298;2023-06-14T09:08:18;95055.83;;;23.95;56.95
6096;BME280;25081;42.698;23.298;2023-06-14T09:10:28;95052.79;;;24.75;55.69
6096;BME280;25081;42.698;23.298;2023-06-14T09:12:39;95053.53;;;23.99;59.18
6096;BME280;25081;42.698;23.298;2023-06-14T09:14:50;95059.63;;;23.83;58.38
6096;BME280;25081;42.698;23.298;2023-06-14T09:17:01;94983.84;;;23.76;59.97
6096;BME280;25081;42.698;23.298;2023-06-14T09:19:20;95050.70;;;23.93;58.30
6096;BME280;25081;42.698;23.298;2023-06-14T09:21:25;95038.36;;;24.32;57.86
6096;BME280;25081;42.698;23.298;2023-06-14T09:23:37;95036.11;;;25.07;57.73
6096;BME280;25081;42.698;23.298;2023-06-14T09:25:48;95035.09;;;25.15;57.39
6096;BME280;25081;42.698;23.298;2023-06-14T09:27:59;95042.80;;;24.39;57.84
6096;BME280;25081;42.698;23.298;2023-06-14T09:30:11;95043.30;;;25.80;53.10
6096;BME280;25081;42.698;23.298;2023-06-14T09:32:22;95039.46;;;26.97;51.81
6096;BME280;25081;42.698;23.298;2023-06-14T09:34:33;95029.23;;;28.04;47.92
6096;BME280;25081;42.698;23.298;2023-06-14T09:36:44;95038.66;;;26.97;50.94
6096;BME280;25081;42.698;23.298;2023-06-14T09:38:55;95035.11;;;26.41;50.74
6096;BME280;25081;42.698;23.298;2023-06-14T09:41:05;95037.86;;;26.06;51.75
6096;BME280;25081;42.698;23.298;2023-06-14T09:43:16;95040.55;;;23.96;57.81
6096;BME280;25081;42.698;23.298;2023-06-14T09:45:26;95035.59;;;24.86;55.87
6096;BME280;25081;42.698;23.298;2023-06-14T09:47:37;95032.00;;;24.57;57.17
6096;BME280;25081;42.698;23.298;2023-06-14T09:49:47;95026.21;;;24.89;56.08
6096;BME280;25081;42.698;23.298;2023-06-14T09:51:58;95027.05;;;24.78;55.74
6096;BME280;25081;42.698;23.298;2023-06-14T09:54:09;95030.84;;;25.39;54.70
6096;BME280;25081;42.698;23.298;2023-06-14T09:56:21;95025.67;;;26.85;51.14
6096;BME280;25081;42.698;23.298;2023-06-14T09:58:31;95017.66;;;27.62;48.88
6096;BME280;25081;42.698;23.298;2023-06-14T10:00:41;95014.28;;;27.51;48.83
6096;BME280;25081;42.698;23.298;2023-06-14T10:02:53;95024.56;;;26.54;50.26
6096;BME280;25081;42.698;23.298;2023-06-14T10:05:05;95017.44;;;25.40;52.96
6096;BME280;25081;42.698;23.298;2023-06-14T10:07:18;95015.40;;;24.11;56.81
6096;BME280;25081;42.698;23.298;2023-06-14T10:09:27;95016.80;;;23.50;59.74
6096;BME280;25081;42.698;23.298;2023-06-14T10:11:38;95012.05;;;24.03;59.23
6096;BME280;25081;42.698;23.298;2023-06-14T10:13:49;95002.89;;;25.71;55.35
6096;BME280;25081;42.698;23.298;2023-06-14T10:16:03;95002.75;;;26.84;51.34
6096;BME280;25081;42.698;23.298;2023-06-14T10:18:16;94995.50;;;27.76;48.14
6096;BME280;25081;42.698;23.298;2023-06-14T10:20:28;94996.86;;;28.45;46.17
6096;BME280;25081;42.698;23.298;2023-06-14T10:22:41;94985.55;;;29.47;44.94
6096;BME280;25081;42.698;23.298;2023-06-14T10:24:51;94989.02;;;28.62;45.63
6096;BME280;25081;42.698;23.298;2023-06-14T10:27:02;94992.23;;;26.71;48.60
6096;BME280;25081;42.698;23.298;2023-06-14T10:29:14;94998.02;;;25.14;54.10
6096;BME280;25081;42.698;23.298;2023-06-14T10:31:26;95000.36;;;23.91;57.54
6096;BME280;25081;42.698;23.298;2023-06-14T10:33:35;95002.45;;;24.50;56.28
6096;BME280;25081;42.698;23.298;2023-06-14T10:35:46;94997.28;;;24.71;55.07
6096;BME280;25081;42.698;23.298;2023-06-14T10:37:58;94990.55;;;24.57;55.29
6096;BME280;25081;42.698;23.298;2023-06-14T10:40:09;94989.56;;;24.31;56.24
6096;BME280;25081;42.698;23.298;2023-06-14T10:42:21;94980.98;;;25.54;53.80
6096;BME280;25081;42.698;23.298;2023-06-14T10:44:45;94983.48;;;27.09;50.11
6096;BME280;25081;42.698;23.298;2023-06-14T10:46:55;94981.77;;;26.73;50.25
6096;BME280;25081;42.698;23.298;2023-06-14T10:49:06;94977.52;;;26.93;48.95
6096;BME280;25081;42.698;23.298;2023-06-14T10:51:20;94975.98;;;27.27;47.95
6096;BME280;25081;42.698;23.298;2023-06-14T10:53:37;94976.48;;;27.80;45.78
6096;BME280;25081;42.698;23.298;2023-06-14T10:55:48;94966.50;;;28.62;44.86
6096;BME280;25081;42.698;23.298;2023-06-14T10:57:58;94960.15;;;28.95;44.67
6096;BME280;25081;42.698;23.298;2023-06-14T11:00:11;94957.65;;;29.26;44.41
6096;BME280;25081;42.698;23.298;2023-06-14T11:07:47;94943.52;;;28.21;44.75
6096;BME280;25081;42.698;23.298;2023-06-14T11:10:12;94951.95;;;27.69;45.85
6096;BME280;25081;42.698;23.298;2023-06-14T11:12:22;94948.37;;;27.62;47.44
6096;BME280;25081;42.698;23.298;2023-06-14T11:14:33;94950.12;;;25.27;52.65
6096;BME280;25081;42.698;23.298;2023-06-14T11:16:43;94947.16;;;26.53;50.97
6096;BME280;25081;42.698;23.298;2023-06-14T11:18:54;94947.97;;;26.77;49.82
6096;BME280;25081;42.698;23.298;2023-06-14T11:21:04;94939.95;;;27.46;47.80
6096;BME280;25081;42.698;23.298;2023-06-14T11:23:15;94939.45;;;27.74;46.91
6096;BME280;25081;42.698;23.298;2023-06-14T11:25:26;94942.56;;;27.28;46.93
6096;BME280;25081;42.698;23.298;2023-06-14T11:27:36;94937.99;;;27.26;46.92
6096;BME280;25081;42.698;23.298;2023-06-14T11:29:50;94935.71;;;27.63;47.50
6096;BME280;25081;42.698;23.298;2023-06-14T11:32:01;94931.45;;;27.60;46.33
6096;BME280;25081;42.698;23.298;2023-06-14T11:34:12;94938.30;;;27.75;46.87